Time;durP1;ratioP1;P1;durP2;ratioP2;P2;SDS_P1;SDS_P2;PMS_P1;PMS_P2;Temp;Humidity;BMP_temperature;BMP_pressure;BME280_temperature;BME280_humidity;BME280_pressure;Samples;Min_cycle;Max_cycle;Signal;HPM_P1;HPM_P2
2023/06/22 00:02:04;;;;;;;14.37;12.97;;;;;;;;;;5033052;28;20450;-63
2023/06/22 00:04:33;;;;;;;13.23;12.03;;;;;;;;;;5032802;28;20446;-63
2023/06/22 00:07:00;;;;;;;12.80;11.50;;;;;;;;;;5033198;28;20790;-63
2023/06/22 00:09:27;;;;;;;12.30;11.20;;;;;;;;;;5033043;28;20786;-63
2023/06/22 00:11:54;;;;;;;14.20;12.83;;;;;;;;;;5032493;28;20445;-63
2023/06/22 00:14:22;;;;;;;14.23;12.53;;;;;;;;;;5033018;28;20445;-63
2023/06/22 00:16:49;;;;;;;13.30;12.00;;;;;;;;;;5032413;28;20473;-63
2023/06/22 00:19:16;;;;;;;15.33;13.83;;;;;;;;;;5033262;28;20442;-63
2023/06/22 00:21:46;;;;;;;15.33;14.00;;;;;;;;;;5032825;28;20485;-64
2023/06/22 00:24:14;;;;;;;14.00;12.80;;;;;;;;;;5035214;28;20427;-63
2023/06/22 00:26:41;;;;;;;14.40;12.90;;;;;;;;;;5036740;28;20446;-63
2023/06/22 00:29:08;;;;;;;14.67;13.37;;;;;;;;;;5036695;28;20446;-63
2023/06/22 00:31:35;;;;;;;15.33;13.70;;;;;;;;;;5036369;28;20933;-63
2023/06/22 00:34:02;;;;;;;14.17;12.87;;;;;;;;;;5036470;28;20527;-63
2023/06/22 00:36:29;;;;;;;12.30;11.20;;;;;;;;;;5036732;28;20474;-63
2023/06/22 00:38:58;;;;;;;14.47;13.07;;;;;;;;;;5036507;28;20449;-63
2023/06/22 00:41:28;;;;;;;14.83;13.33;;;;;;;;;;5036082;28;20457;-63
2023/06/22 00:43:55;;;;;;;15.00;13.70;;;;;;;;;;5036310;28;20472;-63
2023/06/22 00:46:23;;;;;;;15.27;13.30;;;;;;;;;;5036495;28;20438;-63
2023/06/22 00:48:50;;;;;;;18.53;12.93;;;;;;;;;;5036209;28;20844;-63
2023/06/22 00:51:24;;;;;;;14.30;12.90;;;;;;;;;;5036100;28;20456;-63
2023/06/22 00:53:51;;;;;;;13.97;12.67;;;;;;;;;;5036275;28;20427;-63
2023/06/22 00:56:24;;;;;;;15.23;13.23;;;;;;;;;;5036042;28;20481;-63
2023/06/22 00:58:52;;;;;;;14.57;12.87;;;;;;;;;;5036170;28;20434;-63
2023/06/22 01:01:23;;;;;;;15.70;13.80;;;;;;;;;;5035962;28;20445;-63
2023/06/22 01:03:50;;;;;;;14.17;12.83;;;;;;;;;;5035978;28;20476;-63
2023/06/22 01:06:20;;;;;;;16.40;14.70;;;;;;;;;;5036404;28;20442;-63
2023/06/22 01:08:51;;;;;;;15.37;13.77;;;;;;;;;;5035999;28;20435;-63
2023/06/22 01:11:21;;;;;;;16.43;14.47;;;;;;;;;;5035779;28;20912;-63
2023/06/22 01:13:52;;;;;;;15.40;14.00;;;;;;;;;;5036243;28;20434;-64
2023/06/22 01:16:21;;;;;;;15.53;13.80;;;;;;;;;;5036664;28;20444;-63
2023/06/22 01:18:49;;;;;;;16.17;14.20;;;;;;;;;;5036009;28;20445;-63
2023/06/22 01:21:18;;;;;;;15.40;14.00;;;;;;;;;;5035824;28;20470;-63
2023/06/22 01:23:53;;;;;;;14.87;13.37;;;;;;;;;;5035673;28;20441;-63
2023/06/22 01:26:25;;;;;;;14.73;13.40;;;;;;;;;;5035533;28;20433;-63
2023/06/22 01:28:55;;;;;;;20.80;14.80;;;;;;;;;;5035368;28;20441;-63
2023/06/22 01:31:25;;;;;;;14.70;13.40;;;;;;;;;;5035366;28;20442;-63
2023/06/22 01:33:54;;;;;;;21.50;13.70;;;;;;;;;;5035349;28;21014;-63
2023/06/22 01:36:21;;;;;;;14.90;13.50;;;;;;;;;;5034327;28;20449;-63
2023/06/22 01:38:49;;;;;;;16.07;14.57;;;;;;;;;;5035342;28;20481;-63
2023/06/22 01:41:16;;;;;;;16.37;14.77;;;;;;;;;;5035130;28;20944;-63
2023/06/22 01:43:44;;;;;;;15.73;14.23;;;;;;;;;;5035049;28;20444;-63
2023/06/22 01:46:13;;;;;;;15.90;14.50;;;;;;;;;;5035446;28;20444;-63
2023/06/22 01:48:41;;;;;;;14.83;13.33;;;;;;;;;;5035252;28;20453;-63
2023/06/22 01:51:08;;;;;;;18.40;15.10;;;;;;;;;;5035346;28;20797;-63
2023/06/22 01:53:36;;;;;;;16.80;15.27;;;;;;;;;;5035811;28;20868;-63
2023/06/22 01:56:03;;;;;;;14.50;13.10;;;;;;;;;;5034836;28;20506;-63
2023/06/22 01:58:31;;;;;;;15.20;13.70;;;;;;;;;;5034722;28;20470;-63
2023/06/22 02:01:03;;;;;;;16.27;14.70;;;;;;;;;;5035196;28;20517;-63
2023/06/22 02:03:35;;;;;;;16.27;14.73;;;;;;;;;;5034762;28;20430;-63
2023/06/22 02:06:04;;;;;;;15.57;14.17;;;;;;;;;;5034733;28;20427;-63
2023/06/22 02:08:33;;;;;;;15.87;14.30;;;;;;;;;;5034561;28;20449;-63
2023/06/22 02:11:01;;;;;;;16.50;15.00;;;;;;;;;;5034601;28;20517;-63
2023/06/22 02:13:29;;;;;;;17.80;16.00;;;;;;;;;;5034449;28;20458;-63
2023/06/22 02:15:56;;;;;;;16.17;14.67;;;;;;;;;;5034931;28;20448;-63
2023/06/22 02:18:23;;;;;;;16.53;14.93;;;;;;;;;;5034952;28;20504;-63
2023/06/22 02:20:52;;;;;;;18.17;15.50;;;;;;;;;;5034802;28;20517;-63
2023/06/22 02:23:19;;;;;;;16.37;14.87;;;;;;;;;;5034547;28;20545;-63
2023/06/22 02:25:47;;;;;;;16.23;14.73;;;;;;;;;;5034731;28;20817;-63
2023/06/22 02:28:14;;;;;;;17.03;15.37;;;;;;;;;;5034619;28;20536;-63
2023/06/22 02:30:41;;;;;;;16.63;15.13;;;;;;;;;;5034151;28;20439;-63
2023/06/22 02:33:08;;;;;;;17.27;15.57;;;;;;;;;;5034344;28;20448;-63
2023/06/22 02:35:36;;;;;;;15.90;14.30;;;;;;;;;;5034443;28;20452;-63
2023/06/22 02:38:05;;;;;;;17.33;15.70;;;;;;;;;;5034857;28;20625;-63
2023/06/22 02:40:32;;;;;;;16.90;15.33;;;;;;;;;;5034441;28;20926;-63
2023/06/22 02:43:02;;;;;;;17.53;15.83;;;;;;;;;;5034394;28;20433;-63
2023/06/22 02:45:29;;;;;;;15.27;13.87;;;;;;;;;;5034368;28;20503;-63
2023/06/22 02:47:57;;;;;;;17.63;16.00;;;;;;;;;;5034380;28;20446;-63
2023/06/22 02:50:24;;;;;;;15.67;14.07;;;;;;;;;;5034098;28;20469;-63
2023/06/22 02:52:51;;;;;;;15.93;14.30;;;;;;;;;;5034271;28;20527;-63
2023/06/22 02:55:20;;;;;;;19.47;15.60;;;;;;;;;;5034112;28;20446;-63
2023/06/22 02:57:47;;;;;;;15.90;14.40;;;;;;;;;;5034048;28;20599;-63
2023/06/22 03:00:17;;;;;;;18.23;16.30;;;;;;;;;;5033963;28;20482;-63
2023/06/22 03:02:45;;;;;;;16.40;14.90;;;;;;;;;;5033964;28;20503;-63
2023/06/22 03:05:13;;;;;;;18.30;16.40;;;;;;;;;;5033719;28;20458;-63
2023/06/22 03:07:41;;;;;;;18.93;16.53;;;;;;;;;;5033996;28;20812;-63
2023/06/22 03:10:09;;;;;;;17.80;16.20;;;;;;;;;;5033863;28;20446;-63
2023/06/22 03:12:38;;;;;;;16.93;15.33;;;;;;;;;;5034255;28;20445;-63
2023/06/22 03:15:06;;;;;;;18.03;16.27;;;;;;;;;;5033481;28;20445;-63
2023/06/22 03:17:33;;;;;;;18.23;16.33;;;;;;;;;;5033471;28;20488;-63
2023/06/22 03:20:01;;;;;;;20.40;15.87;;;;;;;;;;5033399;28;20522;-63
2023/06/22 03:22:28;;;;;;;20.70;16.40;;;;;;;;;;5034549;28;20427;-63
2023/06/22 03:24:55;;;;;;;17.77;16.07;;;;;;;;;;5033814;28;20445;-63
2023/06/22 03:27:22;;;;;;;18.17;16.20;;;;;;;;;;5033741;28;20446;-63
2023/06/22 03:29:51;;;;;;;20.63;17.43;;;;;;;;;;5033522;28;20538;-63
2023/06/22 03:32:18;;;;;;;18.60;16.80;;;;;;;;;;5033253;28;20449;-63
2023/06/22 03:34:46;;;;;;;18.73;16.80;;;;;;;;;;5033495;28;20778;-63
2023/06/22 03:37:14;;;;;;;17.93;16.33;;;;;;;;;;5033424;28;20472;-63
2023/06/22 03:39:41;;;;;;;18.37;16.47;;;;;;;;;;5033134;28;20456;-63
2023/06/22 03:42:08;;;;;;;19.47;16.60;;;;;;;;;;5033713;28;20450;-63
2023/06/22 03:44:36;;;;;;;18.70;16.63;;;;;;;;;;5033334;28;20464;-63
2023/06/22 03:47:07;;;;;;;17.23;15.17;;;;;;;;;;5033669;28;20482;-64
2023/06/22 03:49:34;;;;;;;21.47;17.33;;;;;;;;;;5033448;28;20437;-64
2023/06/22 03:52:02;;;;;;;17.97;16.37;;;;;;;;;;5017022;28;20459;-64
2023/06/22 03:54:30;;;;;;;17.40;15.70;;;;;;;;;;5013181;28;20439;-63
2023/06/22 03:56:58;;;;;;;21.40;19.10;;;;;;;;;;5013162;28;20950;-63
2023/06/22 03:59:25;;;;;;;18.30;16.50;;;;;;;;;;5012971;28;20832;-64
2023/06/22 04:01:52;;;;;;;19.30;17.50;;;;;;;;;;5013448;28;20451;-64
2023/06/22 04:04:21;;;;;;;18.33;16.50;;;;;;;;;;5013578;28;20443;-63
2023/06/22 04:06:48;;;;;;;16.90;15.23;;;;;;;;;;5013472;28;20533;-64
2023/06/22 04:09:16;;;;;;;17.60;15.90;;;;;;;;;;5013434;28;20459;-64
2023/06/22 04:11:43;;;;;;;17.90;16.10;;;;;;;;;;5013354;28;20447;-64
2023/06/22 04:14:10;;;;;;;20.27;16.00;;;;;;;;;;5013445;28;20473;-64
2023/06/22 04:16:37;;;;;;;16.67;15.07;;;;;;;;;;5013293;28;20446;-64
2023/06/22 04:19:04;;;;;;;17.40;15.67;;;;;;;;;;5012994;28;20503;-64
2023/06/22 04:21:33;;;;;;;17.10;15.50;;;;;;;;;;5013060;28;20480;-63
2023/06/22 04:24:00;;;;;;;17.20;15.50;;;;;;;;;;5012976;28;20446;-63
2023/06/22 04:26:27;;;;;;;18.07;15.57;;;;;;;;;;5013595;28;20443;-64
2023/06/22 04:28:55;;;;;;;18.53;15.37;;;;;;;;;;5013680;28;20456;-63
2023/06/22 04:31:31;;;;;;;16.87;15.27;;;;;;;;;;5013146;28;20502;-64
2023/06/22 04:34:05;;;;;;;17.10;15.30;;;;;;;;;;5013335;28;20431;-63
2023/06/22 04:36:37;;;;;;;16.27;14.60;;;;;;;;;;5012857;28;20917;-63
2023/06/22 04:39:04;;;;;;;16.10;14.50;;;;;;;;;;5013179;28;20479;-64
2023/06/22 04:41:41;;;;;;;16.43;14.80;;;;;;;;;;5013062;28;20538;-64
2023/06/22 04:44:09;;;;;;;15.90;14.50;;;;;;;;;;5012780;28;20439;-64
2023/06/22 04:46:37;;;;;;;18.97;15.33;;;;;;;;;;5013197;28;20439;-64
2023/06/22 04:49:06;;;;;;;17.73;16.00;;;;;;;;;;5012642;28;20553;-67
2023/06/22 04:51:34;;;;;;;16.63;15.00;;;;;;;;;;5012152;28;20459;-64
2023/06/22 04:54:01;;;;;;;15.77;14.17;;;;;;;;;;5012865;28;20531;-64
2023/06/22 04:56:29;;;;;;;17.63;14.60;;;;;;;;;;5012840;28;20552;-64
2023/06/22 04:58:57;;;;;;;15.83;14.40;;;;;;;;;;5012854;28;20479;-65
2023/06/22 05:01:25;;;;;;;15.17;13.70;;;;;;;;;;5012462;28;20454;-64
2023/06/22 05:03:55;;;;;;;16.40;13.23;;;;;;;;;;5012920;28;20450;-63
2023/06/22 05:06:24;;;;;;;18.13;14.00;;;;;;;;;;5012535;28;20592;-64
2023/06/22 05:08:52;;;;;;;14.77;13.27;;;;;;;;;;5012453;28;20538;-64
2023/06/22 05:11:20;;;;;;;15.10;13.60;;;;;;;;;;5014827;28;20444;-64
2023/06/22 05:13:47;;;;;;;14.73;12.97;;;;;;;;;;5016251;28;20820;-63
2023/06/22 05:16:14;;;;;;;14.87;13.37;;;;;;;;;;5016516;28;20462;-64
2023/06/22 05:18:43;;;;;;;14.80;13.30;;;;;;;;;;5015925;28;20490;-64
2023/06/22 05:21:10;;;;;;;14.07;12.67;;;;;;;;;;5016010;28;20471;-64
2023/06/22 05:23:37;;;;;;;14.20;12.90;;;;;;;;;;5016184;28;20452;-64
2023/06/22 05:26:09;;;;;;;15.40;13.90;;;;;;;;;;5015837;28;20447;-64
2023/06/22 05:28:36;;;;;;;19.43;13.87;;;;;;;;;;5016095;28;20557;-64
2023/06/22 05:31:03;;;;;;;27.60;22.90;;;;;;;;;;5015993;28;20440;-65
2023/06/22 05:33:31;;;;;;;16.30;12.80;;;;;;;;;;5015754;28;20933;-64
2023/06/22 05:35:58;;;;;;;14.77;13.37;;;;;;;;;;5016480;28;20945;-63
2023/06/22 05:38:25;;;;;;;13.10;11.87;;;;;;;;;;5015773;28;20483;-64
2023/06/22 05:40:52;;;;;;;13.53;12.20;;;;;;;;;;5015597;28;20964;-64
2023/06/22 05:43:21;;;;;;;15.80;12.67;;;;;;;;;;5015759;28;20446;-63
2023/06/22 05:45:48;;;;;;;14.90;13.30;;;;;;;;;;5015667;28;20457;-63
2023/06/22 05:48:15;;;;;;;13.87;12.47;;;;;;;;;;5015253;28;21023;-63
2023/06/22 05:50:43;;;;;;;16.37;13.90;;;;;;;;;;5015545;28;20451;-63
2023/06/22 05:53:10;;;;;;;13.73;12.33;;;;;;;;;;5015569;28;20443;-64
2023/06/22 05:55:37;;;;;;;16.63;13.70;;;;;;;;;;5015476;28;20454;-63
2023/06/22 05:58:05;;;;;;;14.23;12.47;;;;;;;;;;5015116;28;20943;-64
2023/06/22 06:00:33;;;;;;;15.10;11.83;;;;;;;;;;5015163;28;20448;-64
2023/06/22 06:03:03;;;;;;;14.17;12.77;;;;;;;;;;5015059;28;20445;-64
2023/06/22 06:05:30;;;;;;;15.33;13.17;;;;;;;;;;5015057;28;20452;-64
2023/06/22 06:07:57;;;;;;;15.33;12.97;;;;;;;;;;5015140;28;20945;-64
2023/06/22 06:10:25;;;;;;;13.30;11.70;;;;;;;;;;5015662;28;20467;-64
2023/06/22 06:12:52;;;;;;;14.67;13.33;;;;;;;;;;5014773;28;20446;-64
2023/06/22 06:15:19;;;;;;;15.30;13.50;;;;;;;;;;5015499;28;20937;-64
2023/06/22 06:17:49;;;;;;;14.53;13.03;;;;;;;;;;5015472;28;20442;-64
2023/06/22 06:20:16;;;;;;;18.27;12.27;;;;;;;;;;5014702;28;20502;-64
2023/06/22 06:22:43;;;;;;;14.00;12.03;;;;;;;;;;5014722;28;20444;-64
2023/06/22 06:25:18;;;;;;;15.63;13.33;;;;;;;;;;5014940;28;20446;-64
2023/06/22 06:27:45;;;;;;;12.00;10.77;;;;;;;;;;5014871;28;20437;-64
2023/06/22 06:30:13;;;;;;;16.20;12.40;;;;;;;;;;5014894;28;20455;-63
2023/06/22 06:32:41;;;;;;;14.30;12.63;;;;;;;;;;5014767;28;20445;-64
2023/06/22 06:35:10;;;;;;;14.77;13.23;;;;;;;;;;5014410;28;20453;-64
2023/06/22 06:37:38;;;;;;;16.90;15.20;;;;;;;;;;5014621;28;20479;-64
2023/06/22 06:40:08;;;;;;;13.13;11.80;;;;;;;;;;5014298;28;20483;-64
2023/06/22 06:42:35;;;;;;;13.90;12.60;;;;;;;;;;5014866;28;20538;-64
2023/06/22 06:45:02;;;;;;;13.40;11.80;;;;;;;;;;5014842;28;20449;-63
2023/06/22 06:47:29;;;;;;;14.43;12.93;;;;;;;;;;5014761;28;20441;-64
2023/06/22 06:49:56;;;;;;;14.40;13.00;;;;;;;;;;5014080;28;20463;-64
2023/06/22 06:52:25;;;;;;;14.50;13.20;;;;;;;;;;5014235;28;20445;-64
2023/06/22 06:54:52;;;;;;;12.90;11.60;;;;;;;;;;5014783;28;20448;-64
2023/06/22 06:57:20;;;;;;;14.03;12.67;;;;;;;;;;5014099;28;20948;-64
2023/06/22 06:59:47;;;;;;;16.60;13.33;;;;;;;;;;5014823;28;20484;-63
2023/06/22 07:02:14;;;;;;;13.30;12.07;;;;;;;;;;5014311;28;20796;-64
2023/06/22 07:04:42;;;;;;;14.33;12.87;;;;;;;;;;5014343;28;20504;-63
2023/06/22 07:07:09;;;;;;;17.40;13.37;;;;;;;;;;5014314;28;20450;-63
2023/06/22 07:09:37;;;;;;;17.90;13.57;;;;;;;;;;5014146;28;20442;-63
2023/06/22 07:12:05;;;;;;;14.13;12.63;;;;;;;;;;5014200;28;20481;-64
2023/06/22 07:14:32;;;;;;;13.93;12.53;;;;;;;;;;5013707;28;20974;-63
2023/06/22 07:16:59;;;;;;;16.27;12.87;;;;;;;;;;5014214;28;20452;-63
2023/06/22 07:19:27;;;;;;;16.00;14.40;;;;;;;;;;5013666;28;21007;-64
2023/06/22 07:21:54;;;;;;;14.47;13.03;;;;;;;;;;5014181;28;20512;-63
2023/06/22 07:24:21;;;;;;;14.97;13.30;;;;;;;;;;5014103;28;20446;-63
2023/06/22 07:26:50;;;;;;;15.60;13.87;;;;;;;;;;5013857;28;20442;-64
2023/06/22 07:29:18;;;;;;;13.87;12.53;;;;;;;;;;5013472;28;20450;-63
2023/06/22 07:31:45;;;;;;;18.27;13.23;;;;;;;;;;5013909;28;20459;-63
2023/06/22 07:34:13;;;;;;;14.10;12.77;;;;;;;;;;5012652;28;20446;-63
2023/06/22 07:36:40;;;;;;;14.43;12.90;;;;;;;;;;5013742;28;20446;-63
2023/06/22 07:39:07;;;;;;;20.83;14.43;;;;;;;;;;5013219;28;20482;-63
2023/06/22 07:41:34;;;;;;;14.87;13.53;;;;;;;;;;5013687;28;20453;-63
2023/06/22 07:44:03;;;;;;;15.57;14.10;;;;;;;;;;5013920;28;20526;-63
2023/06/22 07:46:31;;;;;;;16.87;15.23;;;;;;;;;;5013670;28;20438;-64
2023/06/22 07:48:59;;;;;;;15.97;14.37;;;;;;;;;;5013332;28;20955;-63
2023/06/22 07:51:26;;;;;;;19.77;15.53;;;;;;;;;;5013598;28;20470;-63
2023/06/22 07:53:53;;;;;;;14.83;13.53;;;;;;;;;;5013083;28;20456;-63
2023/06/22 07:56:21;;;;;;;15.57;14.10;;;;;;;;;;5013424;28;20445;-64
2023/06/22 07:58:48;;;;;;;17.20;15.13;;;;;;;;;;5013828;28;20449;-64
2023/06/22 08:01:19;;;;;;;18.60;15.13;;;;;;;;;;5013470;28;20453;-64
2023/06/22 08:03:46;;;;;;;23.07;15.60;;;;;;;;;;5013481;28;20537;-64
2023/06/22 08:06:13;;;;;;;16.60;15.00;;;;;;;;;;5013156;28;20456;-64
2023/06/22 08:08:42;;;;;;;18.90;15.27;;;;;;;;;;5013041;28;20958;-64
2023/06/22 08:11:09;;;;;;;16.70;15.07;;;;;;;;;;5013118;28;20541;-64
2023/06/22 08:13:36;;;;;;;15.80;14.40;;;;;;;;;;5013025;28;20441;-65
2023/06/22 08:16:04;;;;;;;15.43;14.03;;;;;;;;;;5013028;28;20949;-64
2023/06/22 08:18:32;;;;;;;15.77;13.90;;;;;;;;;;5012633;28;20441;-65
2023/06/22 08:20:59;;;;;;;19.83;15.73;;;;;;;;;;5012674;28;20536;-64
2023/06/22 08:23:26;;;;;;;16.33;14.67;;;;;;;;;;5013280;28;20480;-64
2023/06/22 08:25:54;;;;;;;16.63;15.03;;;;;;;;;;5013318;28;20452;-64
2023/06/22 08:28:21;;;;;;;15.60;14.10;;;;;;;;;;5013775;28;20445;-65
2023/06/22 08:30:48;;;;;;;16.90;15.33;;;;;;;;;;5013506;28;20449;-64
2023/06/22 08:33:15;;;;;;;16.40;14.73;;;;;;;;;;5013153;28;20446;-64
2023/06/22 08:35:44;;;;;;;20.30;15.10;;;;;;;;;;5013033;28;20538;-63
2023/06/22 08:38:15;;;;;;;21.80;15.80;;;;;;;;;;5012708;28;20445;-64
2023/06/22 08:40:42;;;;;;;15.50;13.90;;;;;;;;;;5012584;28;20470;-64
2023/06/22 08:43:10;;;;;;;17.40;15.53;;;;;;;;;;5012924;28;20859;-64
2023/06/22 08:45:37;;;;;;;24.97;15.00;;;;;;;;;;5015596;28;20452;-63
2023/06/22 08:48:04;;;;;;;16.90;15.23;;;;;;;;;;5016712;28;20453;-63
2023/06/22 08:50:31;;;;;;;16.53;14.83;;;;;;;;;;5016221;28;20543;-63
2023/06/22 08:53:00;;;;;;;17.77;14.87;;;;;;;;;;5016382;28;20931;-64
2023/06/22 08:55:27;;;;;;;15.87;14.27;;;;;;;;;;5016393;28;20557;-64
2023/06/22 08:57:54;;;;;;;16.40;14.50;;;;;;;;;;5016686;28;20451;-64
2023/06/22 09:00:22;;;;;;;18.70;15.93;;;;;;;;;;5016088;28;20517;-63
2023/06/22 09:02:49;;;;;;;16.60;15.00;;;;;;;;;;5016149;28;20450;-64
2023/06/22 09:05:17;;;;;;;17.83;15.33;;;;;;;;;;5016310;28;20458;-64
2023/06/22 09:07:44;;;;;;;17.37;15.57;;;;;;;;;;5016364;28;20966;-64
2023/06/22 09:10:13;;;;;;;18.07;16.27;;;;;;;;;;5016316;28;20815;-65
2023/06/22 09:12:40;;;;;;;17.23;15.53;;;;;;;;;;5015937;28;20443;-64
2023/06/22 09:15:08;;;;;;;16.90;15.30;;;;;;;;;;5016130;28;20446;-64
2023/06/22 09:17:36;;;;;;;18.70;16.00;;;;;;;;;;5015891;28;20512;-64
2023/06/22 09:20:05;;;;;;;17.83;16.00;;;;;;;;;;5015576;28;20593;-63
2023/06/22 09:22:32;;;;;;;19.53;16.77;;;;;;;;;;5016098;28;20433;-64
2023/06/22 09:25:00;;;;;;;17.60;15.90;;;;;;;;;;5015895;28;20550;-64
2023/06/22 09:27:29;;;;;;;16.37;15.00;;;;;;;;;;5015927;28;20622;-64
2023/06/22 09:29:58;;;;;;;17.67;15.90;;;;;;;;;;5015780;28;20878;-64
2023/06/22 09:32:25;;;;;;;18.27;16.67;;;;;;;;;;5015711;28;20453;-64
2023/06/22 09:34:52;;;;;;;20.40;17.20;;;;;;;;;;5015475;28;20444;-64
2023/06/22 09:37:20;;;;;;;17.63;15.77;;;;;;;;;;5015901;28;20447;-64
2023/06/22 09:39:47;;;;;;;19.77;17.90;;;;;;;;;;5015290;28;20481;-64
2023/06/22 09:42:14;;;;;;;17.10;15.50;;;;;;;;;;5016021;28;20951;-64
2023/06/22 09:44:43;;;;;;;22.57;16.53;;;;;;;;;;5016152;28;20450;-64
2023/06/22 09:47:10;;;;;;;18.10;16.20;;;;;;;;;;5015985;28;20450;-64
2023/06/22 09:49:37;;;;;;;18.83;16.43;;;;;;;;;;5015604;28;20475;-64
2023/06/22 09:52:04;;;;;;;18.80;16.93;;;;;;;;;;5015741;28;20456;-64
2023/06/22 09:54:32;;;;;;;18.23;16.43;;;;;;;;;;5015446;28;20455;-64
2023/06/22 09:56:59;;;;;;;18.23;15.80;;;;;;;;;;5015057;28;20449;-63
2023/06/22 09:59:26;;;;;;;17.93;16.33;;;;;;;;;;5015688;28;20450;-63
2023/06/22 10:01:55;;;;;;;19.60;14.80;;;;;;;;;;5015316;28;20803;-64
2023/06/22 10:04:22;;;;;;;16.77;15.23;;;;;;;;;;5015289;28;20448;-64
2023/06/22 10:06:49;;;;;;;16.13;14.73;;;;;;;;;;5015131;28;20450;-64
2023/06/22 10:09:16;;;;;;;14.60;13.20;;;;;;;;;;5015311;28;20443;-64
2023/06/22 10:11:43;;;;;;;14.90;13.50;;;;;;;;;;5015150;28;20449;-64
2023/06/22 10:14:11;;;;;;;14.57;13.07;;;;;;;;;;5015226;28;20784;-64
2023/06/22 10:16:38;;;;;;;13.13;11.93;;;;;;;;;;5015047;28;20514;-64
2023/06/22 10:19:06;;;;;;;15.70;14.10;;;;;;;;;;5015093;28;20442;-64
2023/06/22 10:21:34;;;;;;;18.63;13.50;;;;;;;;;;5014567;28;20588;-64
2023/06/22 10:24:05;;;;;;;21.90;14.60;;;;;;;;;;5014961;28;20526;-64
2023/06/22 10:26:33;;;;;;;15.20;13.70;;;;;;;;;;5015083;28;20438;-64
2023/06/22 10:29:00;;;;;;;16.60;14.90;;;;;;;;;;5014912;28;20939;-63
2023/06/22 10:31:27;;;;;;;17.67;16.00;;;;;;;;;;5014800;28;20462;-63
2023/06/22 10:33:55;;;;;;;17.33;15.63;;;;;;;;;;5014504;28;20447;-64
2023/06/22 10:36:24;;;;;;;16.90;15.30;;;;;;;;;;5014623;28;20445;-64
2023/06/22 10:38:52;;;;;;;15.87;14.40;;;;;;;;;;5014677;28;20450;-64
2023/06/22 10:41:19;;;;;;;15.87;14.33;;;;;;;;;;5014518;28;20477;-64
2023/06/22 10:43:46;;;;;;;16.13;14.57;;;;;;;;;;5014679;28;20441;-63
2023/06/22 10:46:14;;;;;;;18.53;16.60;;;;;;;;;;5014551;28;20451;-63
2023/06/22 10:48:41;;;;;;;18.57;16.07;;;;;;;;;;5015306;28;20486;-63
2023/06/22 10:51:08;;;;;;;16.47;14.80;;;;;;;;;;5014187;28;20443;-63
2023/06/22 10:53:37;;;;;;;16.30;14.60;;;;;;;;;;5014339;28;20450;-63
2023/06/22 10:56:04;;;;;;;14.77;13.57;;;;;;;;;;5014322;28;20533;-64
2023/06/22 10:58:31;;;;;;;15.47;14.17;;;;;;;;;;5013972;28;20537;-64
2023/06/22 11:00:59;;;;;;;15.77;13.87;;;;;;;;;;5014171;28;20471;-64
2023/06/22 11:03:26;;;;;;;15.50;14.20;;;;;;;;;;5014572;28;20588;-64
2023/06/22 11:05:53;;;;;;;17.10;15.30;;;;;;;;;;5014468;28;20443;-64
2023/06/22 11:08:21;;;;;;;16.33;14.87;;;;;;;;;;5014563;28;20451;-64
2023/06/22 11:10:49;;;;;;;17.83;13.80;;;;;;;;;;5013915;28;20467;-64
2023/06/22 11:13:16;;;;;;;17.33;14.57;;;;;;;;;;5014222;28;20421;-63
2023/06/22 11:15:43;;;;;;;17.70;16.10;;;;;;;;;;5013805;28;20782;-64
2023/06/22 11:18:11;;;;;;;17.30;15.73;;;;;;;;;;5014053;28;20452;-64
2023/06/22 11:20:40;;;;;;;16.97;15.47;;;;;;;;;;5013435;28;20506;-66
2023/06/22 11:23:07;;;;;;;17.23;15.50;;;;;;;;;;5014160;28;20457;-64
2023/06/22 11:25:35;;;;;;;17.33;15.23;;;;;;;;;;5013445;28;20456;-63
2023/06/22 11:28:04;;;;;;;14.70;13.40;;;;;;;;;;5013345;28;20990;-64
2023/06/22 11:30:31;;;;;;;17.17;15.47;;;;;;;;;;5013346;28;20958;-64
2023/06/22 11:32:59;;;;;;;16.43;14.87;;;;;;;;;;5013548;28;20923;-64
2023/06/22 11:35:26;;;;;;;17.00;15.47;;;;;;;;;;5013747;28;20489;-69
2023/06/22 11:37:53;;;;;;;21.67;17.10;;;;;;;;;;5013467;28;20794;-64
2023/06/22 11:40:20;;;;;;;21.10;15.43;;;;;;;;;;5013388;28;20579;-64
2023/06/22 11:42:47;;;;;;;18.20;16.37;;;;;;;;;;5013366;28;20453;-64
2023/06/22 11:45:17;;;;;;;18.40;16.70;;;;;;;;;;5013341;28;20456;-64
2023/06/22 11:47:44;;;;;;;17.80;16.00;;;;;;;;;;5013346;28;20450;-63
2023/06/22 11:50:12;;;;;;;19.10;17.00;;;;;;;;;;5013583;28;20458;-65
2023/06/22 11:52:39;;;;;;;17.43;15.73;;;;;;;;;;5013639;28;20471;-64
2023/06/22 11:55:06;;;;;;;17.70;15.63;;;;;;;;;;5013616;28;20421;-64
2023/06/22 11:57:35;;;;;;;21.30;18.20;;;;;;;;;;5013453;28;20456;-64
2023/06/22 12:00:06;;;;;;;19.27;17.40;;;;;;;;;;5020726;28;20472;-64
2023/06/22 12:02:34;;;;;;;16.90;15.37;;;;;;;;;;5022149;28;20436;-64
2023/06/22 12:05:04;;;;;;;15.70;14.23;;;;;;;;;;5013433;28;20794;-64
2023/06/22 12:07:32;;;;;;;17.80;15.90;;;;;;;;;;5013765;28;20445;-64
2023/06/22 12:09:59;;;;;;;16.60;15.10;;;;;;;;;;5013184;28;20442;-64
2023/06/22 12:12:26;;;;;;;19.67;14.57;;;;;;;;;;5013385;28;20478;-64
2023/06/22 12:14:53;;;;;;;15.80;14.30;;;;;;;;;;5013125;28;20457;-64
2023/06/22 12:17:20;;;;;;;19.70;16.70;;;;;;;;;;5012986;28;20445;-65
2023/06/22 12:19:49;;;;;;;20.10;16.60;;;;;;;;;;5014900;28;20818;-64
2023/06/22 12:22:17;;;;;;;18.20;16.53;;;;;;;;;;5017497;28;20792;-65
2023/06/22 12:24:44;;;;;;;16.53;14.93;;;;;;;;;;5017191;28;20472;-65
2023/06/22 12:27:11;;;;;;;17.67;15.97;;;;;;;;;;5017159;28;20450;-64
2023/06/22 12:29:38;;;;;;;18.40;16.60;;;;;;;;;;5017096;28;20488;-63
2023/06/22 12:32:06;;;;;;;18.20;16.50;;;;;;;;;;5016709;28;20787;-63
2023/06/22 12:34:33;;;;;;;20.27;18.23;;;;;;;;;;5017025;28;20481;-64
2023/06/22 12:37:02;;;;;;;18.43;16.30;;;;;;;;;;5016569;28;20454;-64
2023/06/22 12:39:29;;;;;;;20.70;16.60;;;;;;;;;;5016938;28;20505;-64
2023/06/22 12:41:56;;;;;;;21.10;16.77;;;;;;;;;;5016915;28;20486;-65
2023/06/22 12:44:23;;;;;;;18.30;16.70;;;;;;;;;;5016836;28;20523;-64
2023/06/22 12:46:50;;;;;;;22.20;16.97;;;;;;;;;;5016867;28;20447;-63
2023/06/22 12:49:18;;;;;;;18.63;16.83;;;;;;;;;;5016627;28;20451;-64
2023/06/22 12:51:45;;;;;;;19.20;17.30;;;;;;;;;;5016781;28;20458;-64
2023/06/22 12:54:14;;;;;;;18.37;16.60;;;;;;;;;;5016458;28;20466;-64
2023/06/22 12:56:43;;;;;;;21.40;19.20;;;;;;;;;;5017240;28;20529;-64
2023/06/22 12:59:10;;;;;;;21.30;19.37;;;;;;;;;;5016647;28;20454;-64
2023/06/22 13:01:38;;;;;;;22.20;20.10;;;;;;;;;;5015972;28;20487;-64
2023/06/22 13:04:05;;;;;;;23.17;20.83;;;;;;;;;;5016494;28;20442;-64
2023/06/22 13:06:32;;;;;;;22.70;20.30;;;;;;;;;;5016745;28;20442;-63
2023/06/22 13:08:59;;;;;;;25.30;22.67;;;;;;;;;;5015544;28;20461;-63
2023/06/22 13:11:28;;;;;;;26.10;21.70;;;;;;;;;;5015418;28;20802;-63
2023/06/22 13:13:55;;;;;;;26.40;23.90;;;;;;;;;;5015527;28;20452;-65
2023/06/22 13:16:22;;;;;;;24.67;22.07;;;;;;;;;;5015457;28;20444;-64
2023/06/22 13:18:49;;;;;;;28.33;25.67;;;;;;;;;;5015296;28;20495;-64
2023/06/22 13:21:16;;;;;;;28.33;23.70;;;;;;;;;;5015614;28;20912;-64
2023/06/22 13:23:44;;;;;;;25.90;23.40;;;;;;;;;;5015528;28;20456;-64
2023/06/22 13:26:11;;;;;;;27.57;24.97;;;;;;;;;;5015526;28;20455;-64
2023/06/22 13:28:39;;;;;;;30.43;26.07;;;;;;;;;;5015277;28;20497;-65
2023/06/22 13:31:07;;;;;;;29.47;24.97;;;;;;;;;;5014390;28;20453;-65
2023/06/22 13:33:34;;;;;;;27.80;25.20;;;;;;;;;;5015366;28;20441;-65
2023/06/22 13:36:03;;;;;;;29.73;26.70;;;;;;;;;;5021667;28;20528;-66
2023/06/22 13:38:31;;;;;;;29.67;26.87;;;;;;;;;;5035386;28;20433;-65
2023/06/22 13:40:59;;;;;;;28.57;25.97;;;;;;;;;;5035397;28;20484;-64
2023/06/22 13:43:28;;;;;;;34.10;30.83;;;;;;;;;;5035400;28;20459;-66
2023/06/22 13:45:57;;;;;;;29.93;27.07;;;;;;;;;;5035522;28;20515;-64
2023/06/22 13:48:25;;;;;;;27.07;24.57;;;;;;;;;;5035569;28;20440;-64
2023/06/22 13:50:52;;;;;;;28.27;25.30;;;;;;;;;;5035410;28;20461;-64
2023/06/22 13:53:20;;;;;;;28.17;25.53;;;;;;;;;;5035034;28;20947;-65
2023/06/22 13:55:47;;;;;;;31.00;28.00;;;;;;;;;;5034923;28;20448;-64
2023/06/22 13:58:14;;;;;;;28.27;25.57;;;;;;;;;;5034965;28;20445;-64
2023/06/22 14:00:42;;;;;;;27.33;24.50;;;;;;;;;;5034985;28;20448;-64
2023/06/22 14:03:10;;;;;;;30.27;26.70;;;;;;;;;;5019519;28;20456;-64
2023/06/22 14:05:37;;;;;;;26.57;23.03;;;;;;;;;;5014842;28;20457;-64
2023/06/22 14:08:04;;;;;;;25.80;23.20;;;;;;;;;;5015036;28;20481;-65
2023/06/22 14:10:32;;;;;;;25.43;23.03;;;;;;;;;;5014903;28;20962;-64
2023/06/22 14:12:59;;;;;;;26.53;24.03;;;;;;;;;;5015780;28;20527;-64
2023/06/22 14:15:27;;;;;;;26.30;23.70;;;;;;;;;;5014647;28;20462;-65
2023/06/22 14:17:54;;;;;;;27.27;24.87;;;;;;;;;;5014357;28;20442;-63
2023/06/22 14:20:22;;;;;;;25.00;22.70;;;;;;;;;;5014646;28;20835;-64